Time;durP1;ratioP1;P1;durP2;ratioP2;P2;SDS_P1;SDS_P2;PMS_P1;PMS_P2;Temp;Humidity;BMP_temperature;BMP_pressure;BME280_temperature;BME280_humidity;BME280_pressure;Samples;Min_cycle;Max_cycle;Signal;HPM_P1;HPM_P2
2023/05/25 04:39:11;;;;;;;10.07;9.77;;;8.90;99.90;;;;;;6118160;22;2889349;-87
2023/05/25 04:42:12;;;;;;;9.97;9.67;;;8.90;99.90;;;;;;6232237;22;20198;-87
2023/05/25 04:52:02;;;;;;;9.93;9.63;;;9.00;99.90;;;;;;6197973;23;20666;-87
2023/05/25 04:55:06;;;;;;;9.80;9.50;;;9.00;99.90;;;;;;6201345;23;20191;-87
2023/05/25 04:57:57;;;;;;;;;;;;;;;;;;;;;
2023/05/25 05:00:53;;;;;;;9.80;9.50;;;9.10;99.90;;;;;;6219636;22;20190;-86
2023/05/25 05:06:54;;;;;;;9.87;9.57;;;9.30;99.90;;;;;;6135184;23;20286;-87
2023/05/25 05:13:21;;;;;;;;;;;;;;;;;;;;;
2023/05/25 05:22:46;;;;;;;9.90;9.60;;;9.80;99.90;;;;;;6185724;23;20192;-87
2023/05/25 05:26:10;;;;;;;10.07;9.77;;;9.90;99.90;;;;;;6201184;23;20254;-87
2023/05/25 05:28:57;;;;;;;10.10;9.80;;;10.10;99.90;;;;;;6199920;23;20196;-86
2023/05/25 05:40:33;;;;;;;9.80;9.50;;;10.60;99.90;;;;;;6197225;23;20263;-87
2023/05/25 05:43:15;;;;;;;10.00;9.70;;;10.70;99.90;;;;;;6199596;23;20196;-86
2023/05/25 05:55:21;;;;;;;;;;;;;;;;;;;;;
2023/05/25 05:58:09;;;;;;;9.83;9.53;;;11.20;99.90;;;;;;6199796;23;20252;-87
2023/05/25 06:01:05;;;;;;;9.50;9.20;;;11.40;99.90;;;;;;6199483;23;20231;-87
2023/05/25 06:03:59;;;;;;;;;;;;;;;;;;;;;
2023/05/25 06:06:32;;;;;;;9.60;9.30;;;11.70;99.90;;;;;;6172348;23;20227;-87
2023/05/25 06:13:06;;;;;;;9.30;9.00;;;12.00;99.90;;;;;;6195591;23;20195;-87
2023/05/25 06:15:50;;;;;;;9.80;9.50;;;12.20;99.90;;;;;;6199596;23;20199;-86
2023/05/25 06:25:12;;;;;;;9.80;9.50;;;12.70;99.90;;;;;;6050295;23;20207;-86
2023/05/25 06:28:10;;;;;;;9.80;9.50;;;12.80;99.90;;;;;;6199550;23;20207;-87
2023/05/25 06:31:26;;;;;;;;;;;;;;;;;;;;;
2023/05/25 06:34:42;;;;;;;;;;;;;;;;;;;;;
2023/05/25 06:48:22;;;;;;;;;;;;;;;;;;;;;
2023/05/25 06:51:37;;;;;;;9.90;9.60;;;14.00;99.90;;;;;;6200406;23;20282;-88
2023/05/25 06:57:48;;;;;;;;;;;;;;;;;;;;;
2023/05/25 07:00:34;;;;;;;9.80;9.50;;;14.40;99.90;;;;;;6208740;22;20207;-85
2023/05/25 07:06:41;;;;;;;9.50;9.20;;;14.70;99.90;;;;;;6103719;23;20199;-86
2023/05/25 07:09:55;;;;;;;9.80;9.50;;;14.80;99.90;;;;;;6198376;23;20191;-86
2023/05/25 07:12:44;;;;;;;9.50;9.20;;;14.90;99.90;;;;;;6198010;23;20196;-86
2023/05/25 07:15:14;;;;;;;9.38;9.07;;;15.00;99.90;;;;;;6197856;23;20196;-86
2023/05/25 07:21:22;;;;;;;9.25;8.95;;;15.30;99.90;;;;;;6197635;23;20282;-87
2023/05/25 07:24:09;;;;;;;9.40;9.10;;;15.20;99.90;;;;;;6183773;23;20200;-86
2023/05/25 07:29:25;;;;;;;9.90;9.60;;;15.60;99.90;;;;;;6190701;23;20200;-84
2023/05/25 07:32:14;;;;;;;9.80;9.50;;;15.60;99.90;;;;;;6197187;23;20198;-86
2023/05/25 07:42:20;;;;;;;;;;;;;;;;;;;;;
2023/05/25 07:47:46;;;;;;;9.60;9.30;;;16.40;99.90;;;;;;6303861;22;20177;-85
2023/05/25 07:50:24;;;;;;;9.38;9.07;;;16.70;99.90;;;;;;6259187;22;20262;-86
2023/05/25 07:52:59;;;;;;;9.82;9.52;;;16.60;99.90;;;;;;6259393;22;20275;-86
2023/05/25 07:58:24;;;;;;;9.77;9.48;;;16.80;99.90;;;;;;6258908;22;20205;-86
2023/05/25 08:01:04;;;;;;;9.70;9.40;;;16.90;99.90;;;;;;6258951;22;20210;-87
2023/05/25 08:06:44;;;;;;;9.80;9.50;;;17.10;99.90;;;;;;6277102;22;20179;-87
2023/05/25 10:24:02;;;;;;;10.50;10.20;;;23.10;99.90;;;;;;6228218;23;20258;-88
2023/05/25 10:26:59;;;;;;;10.20;9.90;;;23.20;99.90;;;;;;6230637;22;20206;-87
2023/05/25 10:29:42;;;;;;;10.27;9.98;;;23.70;99.90;;;;;;6229584;23;20207;-87
2023/05/25 10:38:43;;;;;;;10.20;9.90;;;23.30;99.90;;;;;;6258877;22;20240;-84
2023/05/25 10:41:12;;;;;;;10.38;10.07;;;23.40;99.90;;;;;;6263067;22;20249;-82
2023/05/25 10:43:43;;;;;;;10.13;9.82;;;23.60;99.90;;;;;;6262832;22;20194;-83
2023/05/25 10:46:13;;;;;;;10.10;9.80;;;23.70;99.90;;;;;;6263215;22;20206;-83
2023/05/25 10:48:51;;;;;;;10.50;10.20;;;23.90;99.90;;;;;;6232782;23;20243;-83
2023/05/25 10:51:20;;;;;;;10.20;9.90;;;23.80;99.90;;;;;;6233714;23;20186;-84
2023/05/25 10:54:00;;;;;;;10.02;9.73;;;24.00;99.90;;;;;;6238283;23;20210;-86
2023/05/25 10:56:28;;;;;;;10.30;10.00;;;24.00;99.90;;;;;;6238897;23;20195;-86
2023/05/25 10:58:58;;;;;;;10.70;10.40;;;23.90;99.90;;;;;;6236119;23;20206;-86
2023/05/25 11:01:27;;;;;;;10.45;10.15;;;24.20;99.90;;;;;;6233321;23;20195;-86
2023/05/25 11:03:57;;;;;;;10.50;10.20;;;24.50;99.90;;;;;;6232715;23;20199;-85
2023/05/25 11:07:12;;;;;;;10.25;9.95;;;25.00;99.90;;;;;;6231681;23;20187;-85
2023/05/25 11:09:49;;;;;;;10.30;10.00;;;25.00;99.90;;;;;;6231785;23;20195;-85
2023/05/25 11:12:25;;;;;;;10.10;9.80;;;24.80;99.90;;;;;;6231884;23;20201;-85
2023/05/25 11:15:15;;;;;;;9.70;9.40;;;24.40;99.90;;;;;;6231746;23;20205;-85
2023/05/25 11:18:02;;;;;;;9.88;9.57;;;24.40;99.90;;;;;;6242672;23;20218;-85
2023/05/25 11:20:30;;;;;;;10.00;9.70;;;24.70;99.90;;;;;;6230001;23;20323;-84
2023/05/25 11:22:59;;;;;;;10.23;9.93;;;25.00;99.90;;;;;;6234217;23;20202;-84
2023/05/25 11:25:50;;;;;;;10.20;9.90;;;24.80;99.90;;;;;;6233145;23;20206;-84
2023/05/25 11:28:19;;;;;;;10.20;9.90;;;25.10;99.90;;;;;;6231482;23;20258;-86
2023/05/25 11:30:47;;;;;;;10.18;9.88;;;25.10;99.90;;;;;;6231881;23;20286;-85
2023/05/25 11:33:15;;;;;;;10.07;9.77;;;25.40;99.90;;;;;;6231529;23;20227;-84
2023/05/25 11:35:44;;;;;;;10.05;9.75;;;25.70;99.90;;;;;;6231968;23;20313;-86
2023/05/25 11:38:14;;;;;;;10.20;9.90;;;26.00;99.90;;;;;;6232398;23;20209;-85
2023/05/25 11:40:47;;;;;;;10.07;9.77;;;26.20;99.90;;;;;;6232214;23;20261;-83
2023/05/25 11:43:22;;;;;;;10.18;9.88;;;26.50;99.90;;;;;;6231837;23;20226;-88
2023/05/25 11:46:01;;;;;;;9.98;9.68;;;26.50;99.90;;;;;;6239300;23;20273;-85
2023/05/25 11:48:29;;;;;;;10.27;9.98;;;26.50;99.90;;;;;;6232928;23;20203;-86
2023/05/25 11:51:07;;;;;;;10.10;9.80;;;26.60;99.90;;;;;;6231902;23;20256;-85
2023/05/25 11:53:36;;;;;;;10.00;9.70;;;26.60;99.90;;;;;;6232077;23;20201;-87
2023/05/25 11:56:06;;;;;;;9.98;9.68;;;26.70;99.90;;;;;;6231906;23;20211;-87
2023/05/25 12:01:23;;;;;;;9.88;9.57;;;26.90;99.90;;;;;;6244698;22;20193;-85
2023/05/25 12:03:55;;;;;;;10.02;9.73;;;26.70;99.90;;;;;;6250548;22;20210;-84
2023/05/25 12:06:32;;;;;;;10.13;9.82;;;26.80;99.90;;;;;;6249903;22;20234;-83
2023/05/25 12:09:05;;;;;;;9.98;9.68;;;27.00;99.90;;;;;;6248967;22;20214;-84
2023/05/25 12:11:44;;;;;;;9.73;9.43;;;27.20;99.90;;;;;;6249478;22;20275;-86
2023/05/25 12:14:19;;;;;;;9.75;9.45;;;27.40;99.90;;;;;;6238013;23;20195;-84
2023/05/25 12:16:48;;;;;;;9.80;9.50;;;27.20;99.90;;;;;;6243409;23;20195;-83
2023/05/25 12:19:17;;;;;;;9.70;9.40;;;27.30;99.90;;;;;;6235135;23;20230;-85
2023/05/25 12:21:46;;;;;;;9.75;9.45;;;27.60;99.90;;;;;;6233978;23;20195;-81
2023/05/25 12:24:15;;;;;;;9.93;9.63;;;27.60;99.90;;;;;;6233436;23;20255;-84
2023/05/25 12:26:56;;;;;;;10.05;9.75;;;27.70;99.90;;;;;;6234104;23;20199;-86
2023/05/25 12:29:32;;;;;;;10.00;9.70;;;27.60;99.90;;;;;;6234610;23;20194;-85
2023/05/25 12:32:05;;;;;;;10.00;9.70;;;27.80;99.90;;;;;;6235076;23;20204;-84
2023/05/25 12:34:40;;;;;;;9.85;9.55;;;28.00;99.90;;;;;;6235037;23;20226;-82
2023/05/25 12:37:21;;;;;;;9.82;9.52;;;28.10;99.90;;;;;;6233832;23;20286;-84
2023/05/25 12:39:50;;;;;;;10.63;10.32;;;28.30;99.90;;;;;;6233541;23;20198;-86
2023/05/25 12:42:18;;;;;;;10.18;9.88;;;28.50;99.90;;;;;;6233434;23;20218;-86
2023/05/25 12:47:50;;;;;;;10.02;9.73;;;28.70;99.90;;;;;;6233763;23;20199;-85
2023/05/25 12:50:20;;;;;;;9.70;9.40;;;28.50;99.90;;;;;;6235384;23;20198;-84
2023/05/25 12:52:49;;;;;;;10.10;9.80;;;28.40;99.90;;;;;;6233218;23;20234;-81
2023/05/25 12:55:24;;;;;;;9.80;9.50;;;28.20;99.90;;;;;;6233329;23;20226;-81
2023/05/25 12:57:54;;;;;;;9.80;9.50;;;28.10;99.90;;;;;;6232376;23;20221;-81
2023/05/25 13:00:27;;;;;;;10.20;9.90;;;28.00;99.90;;;;;;6232147;23;20195;-80
2023/05/25 13:02:55;;;;;;;9.95;9.65;;;28.00;99.90;;;;;;6234139;23;20218;-81
2023/05/25 13:05:26;;;;;;;10.05;9.75;;;28.30;99.90;;;;;;6231305;23;20269;-79
2023/05/25 13:07:55;;;;;;;9.80;9.50;;;28.80;99.90;;;;;;6233823;23;20238;-79
2023/05/25 13:10:24;;;;;;;9.70;9.40;;;28.90;99.90;;;;;;6233799;23;20202;-79
2023/05/25 13:12:55;;;;;;;9.65;9.35;;;28.80;99.90;;;;;;6232671;23;20206;-79
2023/05/25 13:15:27;;;;;;;9.57;9.27;;;28.70;99.90;;;;;;6232036;23;20191;-79
2023/05/25 13:18:01;;;;;;;9.55;9.25;;;28.80;99.90;;;;;;6230696;23;20199;-79
2023/05/25 13:20:31;;;;;;;9.57;9.27;;;28.60;99.90;;;;;;6231672;23;20219;-80
2023/05/25 13:23:01;;;;;;;9.77;9.48;;;28.80;99.90;;;;;;6231524;23;20268;-80
2023/05/25 13:25:29;;;;;;;9.57;9.27;;;29.00;99.90;;;;;;6231490;23;20253;-80
2023/05/25 13:27:59;;;;;;;9.60;9.30;;;29.10;99.90;;;;;;6231638;23;20246;-80
2023/05/25 13:30:32;;;;;;;9.52;9.23;;;29.10;99.90;;;;;;6231557;23;20202;-81
2023/05/25 13:33:00;;;;;;;9.50;9.20;;;29.50;99.90;;;;;;6232193;23;20179;-81
2023/05/25 13:35:40;;;;;;;9.70;9.40;;;29.50;99.90;;;;;;6231969;23;20215;-82
2023/05/25 13:38:08;;;;;;;9.52;9.23;;;29.40;99.90;;;;;;6232734;23;20253;-81
2023/05/25 13:40:36;;;;;;;9.48;9.18;;;29.70;99.90;;;;;;6235495;23;20199;-81
2023/05/25 13:43:04;;;;;;;9.55;9.25;;;30.00;99.90;;;;;;6236376;23;20186;-81
2023/05/25 13:45:34;;;;;;;9.50;9.20;;;29.90;99.90;;;;;;6234237;23;20256;-81
2023/05/25 13:48:02;;;;;;;9.40;9.10;;;30.00;99.90;;;;;;6230956;23;20218;-81
2023/05/25 13:50:30;;;;;;;9.60;9.30;;;29.80;99.90;;;;;;6231538;23;20210;-81
2023/05/25 13:53:00;;;;;;;9.45;9.15;;;29.70;99.90;;;;;;6231007;23;20214;-78
2023/05/25 13:55:29;;;;;;;9.35;9.05;;;29.70;99.90;;;;;;6231130;23;20195;-79
2023/05/25 13:57:57;;;;;;;9.50;9.20;;;29.80;99.90;;;;;;6233550;23;20202;-80
2023/05/25 14:00:24;;;;;;;9.60;9.30;;;30.10;99.90;;;;;;6233581;23;20279;-80
2023/05/25 14:02:54;;;;;;;9.43;9.13;;;30.20;99.90;;;;;;6232689;23;20195;-80
2023/05/25 14:05:21;;;;;;;9.52;9.23;;;29.90;99.90;;;;;;6232966;23;20213;-81
2023/05/25 14:07:50;;;;;;;9.70;9.40;;;29.60;99.90;;;;;;6240537;23;20210;-81
2023/05/25 14:10:19;;;;;;;9.80;9.50;;;29.70;99.90;;;;;;6239016;23;20191;-80
2023/05/25 14:12:49;;;;;;;10.00;9.70;;;29.50;99.90;;;;;;6237600;23;20211;-80
2023/05/25 14:15:17;;;;;;;9.80;9.50;;;29.70;99.90;;;;;;6243049;22;20207;-79
2023/05/25 14:17:45;;;;;;;9.50;9.20;;;29.60;99.90;;;;;;6233574;23;20233;-82
2023/05/25 14:20:19;;;;;;;9.50;9.20;;;29.70;99.90;;;;;;6232316;23;20206;-80
2023/05/25 14:22:49;;;;;;;9.35;9.05;;;30.00;99.90;;;;;;6232837;23;20205;-82
2023/05/25 14:25:18;;;;;;;9.27;9.00;;;30.20;99.90;;;;;;6232677;23;20195;-80
2023/05/25 14:27:46;;;;;;;9.45;9.15;;;30.30;99.90;;;;;;6232294;23;20211;-80
2023/05/25 14:30:14;;;;;;;9.40;9.10;;;30.30;99.90;;;;;;6231950;23;20241;-83
2023/05/25 14:32:42;;;;;;;8.80;8.60;;;30.30;99.90;;;;;;6231379;23;20251;-80
2023/05/25 14:35:10;;;;;;;9.40;9.10;;;30.30;99.90;;;;;;6232181;23;20207;-79
2023/05/25 14:37:42;;;;;;;9.55;9.25;;;30.30;99.90;;;;;;6228755;23;20222;-80
2023/05/25 14:40:11;;;;;;;9.50;9.20;;;30.30;99.90;;;;;;6229220;23;20257;-79
2023/05/25 14:42:41;;;;;;;9.52;9.23;;;30.10;99.90;;;;;;6231895;23;20205;-80
2023/05/25 14:45:10;;;;;;;9.70;9.40;;;30.10;99.90;;;;;;6232230;23;20203;-81
2023/05/25 14:47:37;;;;;;;10.02;9.73;;;30.10;99.90;;;;;;6232461;23;20286;-81
2023/05/25 14:50:06;;;;;;;10.15;9.85;;;30.10;99.90;;;;;;6232479;23;20191;-81
2023/05/25 14:52:35;;;;;;;9.85;9.55;;;30.10;99.90;;;;;;6232120;23;20221;-82
2023/05/25 14:55:06;;;;;;;9.88;9.57;;;30.10;99.90;;;;;;6234691;23;20207;-80
2023/05/25 14:57:33;;;;;;;9.88;9.57;;;30.10;99.90;;;;;;6233965;23;20214;-80
2023/05/25 15:00:01;;;;;;;10.10;9.80;;;30.10;99.90;;;;;;6232044;23;20201;-79
2023/05/25 15:02:30;;;;;;;10.20;9.90;;;29.80;99.90;;;;;;6230488;23;20246;-82
2023/05/25 15:04:58;;;;;;;10.10;9.80;;;29.80;99.90;;;;;;6230905;23;20242;-80
2023/05/25 15:07:26;;;;;;;10.00;9.70;;;29.80;99.90;;;;;;6231446;23;20207;-82
2023/05/25 15:09:59;;;;;;;10.15;9.85;;;30.10;99.90;;;;;;6231235;23;20569;-81
2023/05/25 15:12:33;;;;;;;10.30;10.00;;;30.30;99.90;;;;;;6230806;23;20182;-83
2023/05/25 15:15:00;;;;;;;9.90;9.60;;;30.30;99.90;;;;;;6230556;23;20199;-80
2023/05/25 15:17:28;;;;;;;10.05;9.75;;;30.40;99.90;;;;;;6231245;23;20213;-80
2023/05/25 15:19:57;;;;;;;10.15;9.85;;;30.30;99.90;;;;;;6230281;23;20203;-79
2023/05/25 15:22:26;;;;;;;9.90;9.60;;;30.20;99.90;;;;;;6231119;23;20309;-79
2023/05/25 15:24:55;;;;;;;10.18;9.88;;;30.00;99.90;;;;;;6231649;23;20206;-81
2023/05/25 15:27:26;;;;;;;10.10;9.80;;;29.70;99.90;;;;;;6230660;23;20207;-81
2023/05/25 15:30:01;;;;;;;10.27;9.98;;;29.30;99.90;;;;;;6230223;23;20193;-81
2023/05/25 15:32:31;;;;;;;10.20;9.90;;;29.20;99.90;;;;;;6233143;23;20212;-82
2023/05/25 15:35:03;;;;;;;10.00;9.70;;;29.30;99.90;;;;;;6229586;23;20199;-81
2023/05/25 15:37:31;;;;;;;10.23;9.93;;;29.40;99.90;;;;;;6229895;23;20285;-81
2023/05/25 15:40:01;;;;;;;10.00;9.70;;;29.40;99.90;;;;;;6229593;23;20223;-83
2023/05/25 15:42:29;;;;;;;9.70;9.40;;;29.50;99.90;;;;;;6230534;23;20195;-81
2023/05/25 15:45:07;;;;;;;9.50;9.20;;;29.40;99.90;;;;;;6230208;23;20206;-80
2023/05/25 15:47:37;;;;;;;9.52;9.23;;;29.50;99.90;;;;;;6230440;23;20241;-81
2023/05/25 15:50:06;;;;;;;9.10;8.90;;;29.70;99.90;;;;;;6230765;23;20230;-81
2023/05/25 15:52:35;;;;;;;9.02;8.82;;;29.70;99.90;;;;;;6230055;23;20198;-81
2023/05/25 15:55:06;;;;;;;9.10;8.90;;;29.80;99.90;;;;;;6231011;23;20230;-81
2023/05/25 15:57:35;;;;;;;9.23;8.95;;;29.90;99.90;;;;;;6238541;23;20230;-81
2023/05/25 16:00:08;;;;;;;9.25;8.95;;;30.00;99.90;;;;;;6233949;23;20259;-81
2023/05/25 16:02:36;;;;;;;9.48;9.18;;;29.70;99.90;;;;;;6232820;23;20285;-82
2023/05/25 16:05:05;;;;;;;9.40;9.10;;;29.60;99.90;;;;;;6231546;23;20250;-81
2023/05/25 16:07:34;;;;;;;9.45;9.15;;;29.20;99.90;;;;;;6230883;23;20290;-81
2023/05/25 16:10:03;;;;;;;9.80;9.50;;;29.10;99.90;;;;;;6231305;23;20274;-81
2023/05/25 16:12:30;;;;;;;9.90;9.60;;;29.10;99.90;;;;;;6231490;23;20191;-82
2023/05/25 16:14:58;;;;;;;9.60;9.30;;;29.20;99.90;;;;;;6235947;22;20206;-79
2023/05/25 16:17:28;;;;;;;9.88;9.57;;;29.20;99.90;;;;;;6234319;23;20298;-81
2023/05/25 16:19:56;;;;;;;10.35;10.05;;;29.40;99.90;;;;;;6230324;23;20202;-81
2023/05/25 16:22:23;;;;;;;9.77;9.48;;;29.50;99.90;;;;;;6235163;23;20211;-83
2023/05/25 16:24:54;;;;;;;9.65;9.35;;;29.50;99.90;;;;;;6238929;23;20208;-83
2023/05/25 16:27:22;;;;;;;9.50;9.20;;;29.30;99.90;;;;;;6234689;23;20265;-83
2023/05/25 16:29:53;;;;;;;9.70;9.40;;;29.20;99.90;;;;;;6235801;23;20277;-83
2023/05/25 16:32:21;;;;;;;9.50;9.20;;;29.20;99.90;;;;;;6237156;23;20183;-83
2023/05/25 16:34:52;;;;;;;9.68;9.38;;;29.30;99.90;;;;;;6234212;23;20199;-84
2023/05/25 16:37:20;;;;;;;10.07;9.77;;;29.20;99.90;;;;;;6232403;23;20210;-83
2023/05/25 16:39:49;;;;;;;9.90;9.60;;;29.10;99.90;;;;;;6232131;23;20195;-83
2023/05/25 16:42:20;;;;;;;10.18;9.88;;;29.00;99.90;;;;;;6233228;23;20203;-83
2023/05/25 16:44:50;;;;;;;10.40;10.10;;;29.00;99.90;;;;;;6235817;23;20201;-83
2023/05/25 16:47:18;;;;;;;10.30;10.00;;;29.00;99.90;;;;;;6235211;23;20207;-82
2023/05/25 16:52:18;;;;;;;10.05;9.75;;;29.10;99.90;;;;;;6255814;22;20206;-81
2023/05/25 16:54:46;;;;;;;10.25;9.95;;;29.00;99.90;;;;;;6265747;22;20182;-83
2023/05/25 16:57:15;;;;;;;10.27;9.98;;;29.00;99.90;;;;;;6282131;22;20201;-84
2023/05/25 16:59:54;;;;;;;10.20;9.90;;;29.00;99.90;;;;;;6278332;22;20347;-83
2023/05/25 17:02:23;;;;;;;10.23;9.93;;;28.90;99.90;;;;;;6262095;22;20214;-84
2023/05/25 17:04:53;;;;;;;10.20;9.90;;;28.80;99.90;;;;;;6260137;22;20202;-86
2023/05/25 17:07:31;;;;;;;9.70;9.40;;;29.00;99.90;;;;;;6259907;22;20194;-86
2023/05/25 17:10:23;;;;;;;9.80;9.50;;;28.90;99.90;;;;;;6258340;22;20197;-86
2023/05/25 17:12:58;;;;;;;9.70;9.40;;;28.90;99.90;;;;;;6259384;22;20198;-86
2023/05/25 17:18:37;;;;;;;9.57;9.27;;;28.90;99.90;;;;;;6276443;22;20182;-87
2023/05/25 17:24:03;;;;;;;9.65;9.35;;;29.00;99.90;;;;;;6260117;22;20249;-85
2023/05/25 17:26:36;;;;;;;9.68;9.38;;;28.90;99.90;;;;;;6261102;22;20194;-85
2023/05/25 17:29:05;;;;;;;9.60;9.30;;;28.80;99.90;;;;;;6260420;22;20369;-83
2023/05/25 17:31:35;;;;;;;9.48;9.18;;;28.70;99.90;;;;;;6259170;22;20206;-85
2023/05/25 17:34:04;;;;;;;9.70;9.40;;;28.50;99.90;;;;;;6259236;22;20191;-84
2023/05/25 17:36:51;;;;;;;9.70;9.40;;;28.40;99.90;;;;;;6260731;22;20252;-84
2023/05/25 17:42:15;;;;;;;10.00;9.70;;;28.40;99.90;;;;;;6258015;22;20206;-84
2023/05/25 17:44:56;;;;;;;10.05;9.75;;;28.10;99.90;;;;;;6263020;22;20186;-85
2023/05/25 17:47:34;;;;;;;9.70;9.40;;;27.90;99.90;;;;;;6264290;22;20273;-84
2023/05/25 17:52:53;;;;;;;9.75;9.45;;;27.30;99.90;;;;;;6261924;22;20206;-83
2023/05/25 18:09:56;;;;;;;9.60;9.30;;;25.40;99.90;;;;;;6213754;22;20205;-90
2023/05/25 18:30:05;;;;;;;;;;;;;;;;;;;;;
2023/05/25 21:44:56;;;;;;;9.10;8.90;;;16.80;99.90;;;;;;6257984;22;20202;-89
2023/05/25 21:50:57;;;;;;;;;;;;;;;;;;;;;
2023/05/25 22:36:24;;;;;;;9.43;9.13;;;15.80;99.90;;;;;;6261523;22;20212;-87
2023/05/25 22:38:55;;;;;;;9.93;9.63;;;15.70;99.90;;;;;;6269209;22;20198;-87
2023/05/25 22:50:01;;;;;;;9.10;8.90;;;15.50;99.90;;;;;;6264534;22;20202;-87
2023/05/25 22:52:39;;;;;;;8.77;8.57;;;15.40;99.90;;;;;;6262932;22;20190;-85
2023/05/25 22:55:08;;;;;;;8.57;8.38;;;15.40;99.90;;;;;;6258910;22;20376;-83
2023/05/25 22:57:38;;;;;;;8.80;8.60;;;15.40;99.90;;;;;;6265999;22;20197;-84
2023/05/25 23:00:07;;;;;;;8.63;8.43;;;15.40;99.90;;;;;;6261891;22;20207;-84
2023/05/25 23:02:36;;;;;;;9.00;8.80;;;15.30;99.90;;;;;;6260850;22;20210;-83
2023/05/25 23:05:05;;;;;;;8.95;8.75;;;15.30;99.90;;;;;;6260704;22;20293;-83
2023/05/25 23:07:41;;;;;;;8.80;8.60;;;15.20;99.90;;;;;;6261548;22;20244;-83
2023/05/25 23:10:14;;;;;;;8.80;8.60;;;15.10;99.90;;;;;;6262638;22;20252;-82
2023/05/25 23:12:42;;;;;;;9.02;8.82;;;15.10;99.90;;;;;;6261034;22;20194;-81
2023/05/25 23:15:12;;;;;;;9.23;8.93;;;15.00;99.90;;;;;;6262122;22;20206;-82
2023/05/25 23:17:41;;;;;;;9.02;8.82;;;15.00;99.90;;;;;;6262440;22;20206;-82
2023/05/25 23:20:11;;;;;;;8.85;8.65;;;14.90;99.90;;;;;;6262271;22;20198;-82
2023/05/25 23:22:42;;;;;;;8.93;8.73;;;14.90;99.90;;;;;;6262538;22;20214;-83
2023/05/25 23:25:10;;;;;;;8.43;8.23;;;14.90;99.90;;;;;;6261805;22;20295;-82
2023/05/25 23:27:39;;;;;;;8.68;8.48;;;14.80;99.90;;;;;;6262146;22;20206;-82
2023/05/25 23:30:09;;;;;;;8.85;8.65;;;14.80;99.90;;;;;;6262460;22;20202;-83
2023/05/25 23:32:38;;;;;;;9.07;8.88;;;14.80;99.90;;;;;;6261959;22;20190;-81
2023/05/25 23:35:07;;;;;;;8.95;8.75;;;14.70;99.90;;;;;;6261768;22;20300;-83
2023/05/25 23:37:37;;;;;;;9.07;8.88;;;14.70;99.90;;;;;;6261768;22;20197;-82
2023/05/25 23:40:14;;;;;;;8.90;8.70;;;14.80;99.90;;;;;;6262425;22;20190;-82
2023/05/25 23:42:44;;;;;;;8.95;8.75;;;14.70;99.90;;;;;;6261374;22;20209;-82
2023/05/25 23:45:15;;;;;;;8.30;8.10;;;14.60;99.90;;;;;;6262086;22;20201;-82
2023/05/25 23:47:43;;;;;;;8.40;8.20;;;14.60;99.90;;;;;;6263145;22;20216;-83
2023/05/25 23:50:13;;;;;;;8.50;8.30;;;14.60;99.90;;;;;;6265059;22;20194;-82
2023/05/25 23:52:42;;;;;;;8.82;8.63;;;14.60;99.90;;;;;;6262954;22;20190;-82
2023/05/25 23:55:12;;;;;;;9.05;8.85;;;14.60;99.90;;;;;;6262329;22;20216;-82
2023/05/25 23:57:40;;;;;;;9.10;8.90;;;14.50;99.90;;;;;;6262618;22;20194;-82
